sensor_id;sensor_type;location;lat;lon;timestamp;pressure;altitude;pressure_sealevel;temperature;humidity
7668;BME280;3876;42.204;24.686;2022-08-03T00:00:18;99277.59;;;25.73;60.93
7668;BME280;3876;42.204;24.686;2022-08-03T00:02:45;99292.53;;;25.72;61.25
7668;BME280;3876;42.204;24.686;2022-08-03T00:05:11;99282.03;;;25.72;61.50
7668;BME280;3876;42.204;24.686;2022-08-03T00:07:40;99284.81;;;25.71;62.25
7668;BME280;3876;42.204;24.686;2022-08-03T00:10:07;99280.41;;;25.71;62.16
7668;BME280;3876;42.204;24.686;2022-08-03T00:12:34;99288.56;;;25.68;62.33
7668;BME280;3876;42.204;24.686;2022-08-03T00:15:02;99298.38;;;25.66;61.74
7668;BME280;3876;42.204;24.686;2022-08-03T00:17:29;99290.41;;;25.58;61.19
7668;BME280;3876;42.204;24.686;2022-08-03T00:19:55;99285.72;;;25.52;61.66
7668;BME280;3876;42.204;24.686;2022-08-03T00:22:22;99289.56;;;25.48;61.74
7668;BME280;3876;42.204;24.686;2022-08-03T00:24:50;99281.97;;;25.45;62.71
7668;BME280;3876;42.204;24.686;2022-08-03T00:27:17;99280.59;;;25.41;62.82
7668;BME280;3876;42.204;24.686;2022-08-03T00:29:44;99286.81;;;25.40;62.88
7668;BME280;3876;42.204;24.686;2022-08-03T00:32:11;99279.09;;;25.38;62.88
7668;BME280;3876;42.204;24.686;2022-08-03T00:34:37;99278.56;;;25.35;63.56
7668;BME280;3876;42.204;24.686;2022-08-03T00:37:04;99280.63;;;25.31;63.23
7668;BME280;3876;42.204;24.686;2022-08-03T00:39:31;99281.88;;;25.27;63.92
7668;BME280;3876;42.204;24.686;2022-08-03T00:42:02;99288.53;;;25.22;63.93
7668;BME280;3876;42.204;24.686;2022-08-03T00:44:29;99297.63;;;25.18;63.94
7668;BME280;3876;42.204;24.686;2022-08-03T00:46:56;99303.16;;;25.15;65.01
7668;BME280;3876;42.204;24.686;2022-08-03T00:49:23;99289.78;;;25.08;65.22
7668;BME280;3876;42.204;24.686;2022-08-03T00:51:50;99290.50;;;25.10;65.37
7668;BME280;3876;42.204;24.686;2022-08-03T00:54:17;99293.25;;;25.08;65.92
7668;BME280;3876;42.204;24.686;2022-08-03T00:56:45;99287.44;;;25.05;66.04
7668;BME280;3876;42.204;24.686;2022-08-03T00:59:14;99292.97;;;25.02;66.74
7668;BME280;3876;42.204;24.686;2022-08-03T01:01:41;99287.06;;;25.00;67.17
7668;BME280;3876;42.204;24.686;2022-08-03T01:04:08;99288.41;;;24.94;67.79
7668;BME280;3876;42.204;24.686;2022-08-03T01:06:41;99284.00;;;24.85;67.97
7668;BME280;3876;42.204;24.686;2022-08-03T01:09:16;99297.13;;;24.85;67.76
7668;BME280;3876;42.204;24.686;2022-08-03T01:11:48;99298.13;;;24.84;68.06
7668;BME280;3876;42.204;24.686;2022-08-03T01:14:23;99294.63;;;24.74;68.52
7668;BME280;3876;42.204;24.686;2022-08-03T01:16:58;99288.97;;;24.69;67.96
7668;BME280;3876;42.204;24.686;2022-08-03T01:19:38;99297.38;;;24.63;67.68
7668;BME280;3876;42.204;24.686;2022-08-03T01:22:22;99305.66;;;24.59;68.20
7668;BME280;3876;42.204;24.686;2022-08-03T01:25:01;99298.19;;;24.54;68.82
7668;BME280;3876;42.204;24.686;2022-08-03T01:27:33;99298.47;;;24.51;69.39
7668;BME280;3876;42.204;24.686;2022-08-03T01:30:07;99298.75;;;24.48;69.64
7668;BME280;3876;42.204;24.686;2022-08-03T01:32:38;99289.66;;;24.42;69.98
7668;BME280;3876;42.204;24.686;2022-08-03T01:35:09;99290.72;;;24.40;70.68
7668;BME280;3876;42.204;24.686;2022-08-03T01:37:49;99288.38;;;24.37;70.15
7668;BME280;3876;42.204;24.686;2022-08-03T01:40:18;99290.59;;;24.32;70.68
7668;BME280;3876;42.204;24.686;2022-08-03T01:42:46;99279.38;;;24.20;70.97
7668;BME280;3876;42.204;24.686;2022-08-03T01:45:17;99285.34;;;24.22;71.26
7668;BME280;3876;42.204;24.686;2022-08-03T01:47:47;99288.06;;;24.21;71.51
7668;BME280;3876;42.204;24.686;2022-08-03T01:50:18;99287.41;;;24.19;71.78
7668;BME280;3876;42.204;24.686;2022-08-03T01:52:46;99284.09;;;24.17;72.22
7668;BME280;3876;42.204;24.686;2022-08-03T01:55:16;99282.44;;;24.16;72.11
7668;BME280;3876;42.204;24.686;2022-08-03T01:57:45;99270.78;;;24.09;71.58
7668;BME280;3876;42.204;24.686;2022-08-03T02:00:16;99291.13;;;24.16;71.73
7668;BME280;3876;42.204;24.686;2022-08-03T02:02:45;99286.84;;;24.15;71.76
7668;BME280;3876;42.204;24.686;2022-08-03T02:05:13;99284.34;;;24.14;71.89
7668;BME280;3876;42.204;24.686;2022-08-03T02:07:42;99280.09;;;24.13;72.00
7668;BME280;3876;42.204;24.686;2022-08-03T02:10:12;99285.41;;;24.11;71.42
7668;BME280;3876;42.204;24.686;2022-08-03T02:12:41;99289.00;;;24.10;71.85
7668;BME280;3876;42.204;24.686;2022-08-03T02:15:10;99294.25;;;24.10;71.79
7668;BME280;3876;42.204;24.686;2022-08-03T02:17:39;99299.38;;;24.12;72.10
7668;BME280;3876;42.204;24.686;2022-08-03T02:20:09;99277.97;;;24.07;72.06
7668;BME280;3876;42.204;24.686;2022-08-03T02:22:38;99297.00;;;24.09;72.03
7668;BME280;3876;42.204;24.686;2022-08-03T02:25:06;99290.34;;;24.04;72.50
7668;BME280;3876;42.204;24.686;2022-08-03T02:27:35;99294.22;;;24.00;72.27
7668;BME280;3876;42.204;24.686;2022-08-03T02:30:05;99281.22;;;23.89;72.26
7668;BME280;3876;42.204;24.686;2022-08-03T02:32:35;99293.78;;;23.95;72.25
7668;BME280;3876;42.204;24.686;2022-08-03T02:35:07;99291.16;;;23.95;72.60
7668;BME280;3876;42.204;24.686;2022-08-03T02:37:40;99299.16;;;23.94;73.25
7668;BME280;3876;42.204;24.686;2022-08-03T02:40:09;99299.97;;;23.94;72.81
7668;BME280;3876;42.204;24.686;2022-08-03T02:42:39;99299.97;;;23.94;73.26
7668;BME280;3876;42.204;24.686;2022-08-03T02:45:09;99302.72;;;23.93;72.59
7668;BME280;3876;42.204;24.686;2022-08-03T02:47:39;99305.19;;;23.94;72.19
7668;BME280;3876;42.204;24.686;2022-08-03T02:50:10;99290.19;;;23.87;72.21
7668;BME280;3876;42.204;24.686;2022-08-03T02:52:38;99298.31;;;23.93;71.56
7668;BME280;3876;42.204;24.686;2022-08-03T02:55:08;99303.56;;;23.93;71.10
7668;BME280;3876;42.204;24.686;2022-08-03T02:57:36;99293.34;;;23.81;70.77
7668;BME280;3876;42.204;24.686;2022-08-03T03:00:06;99303.53;;;23.84;70.63
7668;BME280;3876;42.204;24.686;2022-08-03T03:02:34;99310.81;;;23.80;70.98
7668;BME280;3876;42.204;24.686;2022-08-03T03:05:02;99309.56;;;23.75;71.68
7668;BME280;3876;42.204;24.686;2022-08-03T03:07:32;99307.34;;;23.70;71.94
7668;BME280;3876;42.204;24.686;2022-08-03T03:10:01;99309.00;;;23.71;72.13
7668;BME280;3876;42.204;24.686;2022-08-03T03:12:28;99309.38;;;23.67;72.93
7668;BME280;3876;42.204;24.686;2022-08-03T03:14:56;99301.53;;;23.67;73.25
7668;BME280;3876;42.204;24.686;2022-08-03T03:17:24;99301.78;;;23.64;73.24
7668;BME280;3876;42.204;24.686;2022-08-03T03:19:52;99301.22;;;23.60;73.54
7668;BME280;3876;42.204;24.686;2022-08-03T03:22:20;99315.50;;;23.56;73.35
7668;BME280;3876;42.204;24.686;2022-08-03T03:24:49;99322.09;;;23.50;74.23
7668;BME280;3876;42.204;24.686;2022-08-03T03:27:17;99323.47;;;23.45;73.76
7668;BME280;3876;42.204;24.686;2022-08-03T03:29:45;99318.81;;;23.37;73.87
7668;BME280;3876;42.204;24.686;2022-08-03T03:32:12;99313.97;;;23.33;74.53
7668;BME280;3876;42.204;24.686;2022-08-03T03:34:39;99313.75;;;23.36;74.49
7668;BME280;3876;42.204;24.686;2022-08-03T03:37:06;99323.13;;;23.38;74.28
7668;BME280;3876;42.204;24.686;2022-08-03T03:39:33;99335.03;;;23.42;74.08
7668;BME280;3876;42.204;24.686;2022-08-03T03:42:02;99346.28;;;23.43;73.91
7668;BME280;3876;42.204;24.686;2022-08-03T03:44:30;99336.81;;;23.42;74.45
7668;BME280;3876;42.204;24.686;2022-08-03T03:46:57;99349.88;;;23.42;73.60
7668;BME280;3876;42.204;24.686;2022-08-03T03:49:24;99337.97;;;23.38;74.00
7668;BME280;3876;42.204;24.686;2022-08-03T03:51:52;99339.91;;;23.36;74.80
7668;BME280;3876;42.204;24.686;2022-08-03T03:54:19;99343.72;;;23.32;74.86
7668;BME280;3876;42.204;24.686;2022-08-03T03:56:49;99336.81;;;23.31;74.61
7668;BME280;3876;42.204;24.686;2022-08-03T03:59:17;99339.00;;;23.26;75.25
7668;BME280;3876;42.204;24.686;2022-08-03T04:01:44;99348.06;;;23.22;75.39
7668;BME280;3876;42.204;24.686;2022-08-03T04:04:11;99325.91;;;23.05;76.13
7668;BME280;3876;42.204;24.686;2022-08-03T04:06:56;99355.44;;;23.17;76.66
7668;BME280;3876;42.204;24.686;2022-08-03T04:09:40;99349.97;;;23.20;76.41
7668;BME280;3876;42.204;24.686;2022-08-03T04:12:28;99353.03;;;23.25;76.15
7668;BME280;3876;42.204;24.686;2022-08-03T04:14:58;99355.41;;;23.28;76.18
7668;BME280;3876;42.204;24.686;2022-08-03T04:17:27;99362.72;;;23.34;75.24
7668;BME280;3876;42.204;24.686;2022-08-03T04:19:56;99364.16;;;23.38;75.39
7668;BME280;3876;42.204;24.686;2022-08-03T04:22:26;99353.44;;;23.41;76.12
7668;BME280;3876;42.204;24.686;2022-08-03T04:24:59;99338.25;;;23.35;76.20
7668;BME280;3876;42.204;24.686;2022-08-03T04:27:32;99361.72;;;23.46;76.67
7668;BME280;3876;42.204;24.686;2022-08-03T04:30:04;99360.09;;;23.45;76.04
7668;BME280;3876;42.204;24.686;2022-08-03T04:32:31;99367.94;;;23.45;76.68
7668;BME280;3876;42.204;24.686;2022-08-03T04:34:58;99367.94;;;23.45;76.44
7668;BME280;3876;42.204;24.686;2022-08-03T04:37:33;99379.00;;;23.48;76.46
7668;BME280;3876;42.204;24.686;2022-08-03T04:40:03;99377.16;;;23.49;75.46
7668;BME280;3876;42.204;24.686;2022-08-03T04:42:32;99376.94;;;23.52;75.01
7668;BME280;3876;42.204;24.686;2022-08-03T04:45:02;99360.56;;;23.39;73.61
7668;BME280;3876;42.204;24.686;2022-08-03T04:47:31;99376.88;;;23.42;73.75
7668;BME280;3876;42.204;24.686;2022-08-03T04:49:59;99379.00;;;23.37;73.77
7668;BME280;3876;42.204;24.686;2022-08-03T04:52:27;99385.06;;;23.38;74.98
7668;BME280;3876;42.204;24.686;2022-08-03T04:54:54;99395.53;;;23.38;75.17
7668;BME280;3876;42.204;24.686;2022-08-03T04:57:20;99381.50;;;23.39;75.17
7668;BME280;3876;42.204;24.686;2022-08-03T04:59:47;99386.13;;;23.46;74.41
7668;BME280;3876;42.204;24.686;2022-08-03T05:02:18;99385.47;;;23.54;74.69
7668;BME280;3876;42.204;24.686;2022-08-03T05:04:45;99387.16;;;23.55;73.28
7668;BME280;3876;42.204;24.686;2022-08-03T05:07:12;99381.47;;;23.50;73.64
7668;BME280;3876;42.204;24.686;2022-08-03T05:09:39;99377.69;;;23.43;72.97
7668;BME280;3876;42.204;24.686;2022-08-03T05:12:07;99384.38;;;23.36;73.39
7668;BME280;3876;42.204;24.686;2022-08-03T05:14:34;99387.53;;;23.39;73.49
7668;BME280;3876;42.204;24.686;2022-08-03T05:17:03;99388.41;;;23.40;75.62
7668;BME280;3876;42.204;24.686;2022-08-03T05:19:31;99393.13;;;23.46;74.70
7668;BME280;3876;42.204;24.686;2022-08-03T05:21:58;99396.91;;;23.53;74.89
7668;BME280;3876;42.204;24.686;2022-08-03T05:24:25;99395.69;;;23.57;74.08
7668;BME280;3876;42.204;24.686;2022-08-03T05:26:52;99394.28;;;23.53;76.17
7668;BME280;3876;42.204;24.686;2022-08-03T05:29:21;99401.25;;;23.64;75.91
7668;BME280;3876;42.204;24.686;2022-08-03T05:31:48;99401.88;;;23.77;74.95
7668;BME280;3876;42.204;24.686;2022-08-03T05:34:15;99416.81;;;23.86;73.83
7668;BME280;3876;42.204;24.686;2022-08-03T05:36:43;99413.53;;;23.93;73.88
7668;BME280;3876;42.204;24.686;2022-08-03T05:39:10;99415.81;;;24.08;73.79
7668;BME280;3876;42.204;24.686;2022-08-03T05:41:36;99408.84;;;24.18;73.21
7668;BME280;3876;42.204;24.686;2022-08-03T05:44:03;99413.75;;;24.32;73.27
7668;BME280;3876;42.204;24.686;2022-08-03T05:46:30;99408.81;;;24.48;72.68
7668;BME280;3876;42.204;24.686;2022-08-03T05:48:57;99401.69;;;24.69;74.48
7668;BME280;3876;42.204;24.686;2022-08-03T05:51:24;99414.34;;;25.04;70.75
7668;BME280;3876;42.204;24.686;2022-08-03T05:53:53;99420.00;;;25.38;70.03
7668;BME280;3876;42.204;24.686;2022-08-03T05:56:21;99429.94;;;25.63;69.78
7668;BME280;3876;42.204;24.686;2022-08-03T05:58:49;99425.75;;;25.80;67.59
7668;BME280;3876;42.204;24.686;2022-08-03T06:01:17;99427.13;;;25.93;64.83
7668;BME280;3876;42.204;24.686;2022-08-03T06:03:46;99431.41;;;25.94;63.19
7668;BME280;3876;42.204;24.686;2022-08-03T06:06:13;99415.91;;;25.91;64.77
7668;BME280;3876;42.204;24.686;2022-08-03T06:08:40;99411.31;;;26.03;64.40
7668;BME280;3876;42.204;24.686;2022-08-03T06:11:09;99424.25;;;26.14;65.11
7668;BME280;3876;42.204;24.686;2022-08-03T06:13:36;99429.25;;;26.27;65.03
7668;BME280;3876;42.204;24.686;2022-08-03T06:16:04;99431.09;;;26.44;63.99
7668;BME280;3876;42.204;24.686;2022-08-03T06:18:30;99431.69;;;26.65;62.53
7668;BME280;3876;42.204;24.686;2022-08-03T06:20:57;99430.19;;;26.80;62.26
7668;BME280;3876;42.204;24.686;2022-08-03T06:23:24;99433.84;;;26.97;60.92
7668;BME280;3876;42.204;24.686;2022-08-03T06:25:51;99442.34;;;27.08;60.36
7668;BME280;3876;42.204;24.686;2022-08-03T06:28:19;99438.59;;;27.11;59.39
7668;BME280;3876;42.204;24.686;2022-08-03T06:30:46;99445.22;;;27.15;60.43
7668;BME280;3876;42.204;24.686;2022-08-03T06:33:13;99439.50;;;27.20;59.54
7668;BME280;3876;42.204;24.686;2022-08-03T06:35:41;99436.41;;;27.24;59.38
7668;BME280;3876;42.204;24.686;2022-08-03T06:38:07;99437.47;;;27.31;57.82
7668;BME280;3876;42.204;24.686;2022-08-03T06:40:35;99439.34;;;27.39;58.82
7668;BME280;3876;42.204;24.686;2022-08-03T06:43:05;99445.75;;;27.36;55.84
7668;BME280;3876;42.204;24.686;2022-08-03T06:45:33;99444.59;;;27.39;56.23
7668;BME280;3876;42.204;24.686;2022-08-03T06:48:02;99435.28;;;27.44;57.71
7668;BME280;3876;42.204;24.686;2022-08-03T06:50:30;99449.00;;;27.48;57.53
7668;BME280;3876;42.204;24.686;2022-08-03T06:52:57;99441.81;;;27.58;58.03
7668;BME280;3876;42.204;24.686;2022-08-03T06:55:24;99443.66;;;27.83;58.11
7668;BME280;3876;42.204;24.686;2022-08-03T06:57:51;99441.78;;;28.01;54.84
7668;BME280;3876;42.204;24.686;2022-08-03T07:00:17;99436.53;;;28.27;53.61
7668;BME280;3876;42.204;24.686;2022-08-03T07:02:46;99440.59;;;28.55;52.89
7668;BME280;3876;42.204;24.686;2022-08-03T07:05:14;99425.38;;;28.75;52.55
7668;BME280;3876;42.204;24.686;2022-08-03T07:07:40;99425.75;;;29.12;52.22
7668;BME280;3876;42.204;24.686;2022-08-03T07:10:08;99432.91;;;29.36;51.24
7668;BME280;3876;42.204;24.686;2022-08-03T07:12:36;99442.16;;;29.56;50.33
7668;BME280;3876;42.204;24.686;2022-08-03T07:15:05;99438.34;;;29.83;49.81
7668;BME280;3876;42.204;24.686;2022-08-03T07:17:33;99443.44;;;30.01;48.76
7668;BME280;3876;42.204;24.686;2022-08-03T07:20:05;99448.19;;;30.13;47.21
7668;BME280;3876;42.204;24.686;2022-08-03T07:22:32;99427.69;;;30.15;46.89
7668;BME280;3876;42.204;24.686;2022-08-03T07:24:59;99442.16;;;30.44;48.40
7668;BME280;3876;42.204;24.686;2022-08-03T07:27:26;99433.19;;;30.84;48.92
7668;BME280;3876;42.204;24.686;2022-08-03T07:29:54;99431.41;;;31.07;47.05
7668;BME280;3876;42.204;24.686;2022-08-03T07:32:21;99447.59;;;31.35;49.00
7668;BME280;3876;42.204;24.686;2022-08-03T07:34:48;99452.78;;;31.51;45.91
7668;BME280;3876;42.204;24.686;2022-08-03T07:37:16;99453.00;;;31.64;48.21
7668;BME280;3876;42.204;24.686;2022-08-03T07:39:43;99456.88;;;31.76;44.96
7668;BME280;3876;42.204;24.686;2022-08-03T07:42:10;99462.38;;;31.89;45.10
7668;BME280;3876;42.204;24.686;2022-08-03T07:44:37;99456.88;;;31.76;46.21
7668;BME280;3876;42.204;24.686;2022-08-03T07:47:04;99458.16;;;31.80;44.61
7668;BME280;3876;42.204;24.686;2022-08-03T07:49:31;99453.34;;;31.15;45.70
7668;BME280;3876;42.204;24.686;2022-08-03T07:51:58;99464.06;;;30.99;47.60
7668;BME280;3876;42.204;24.686;2022-08-03T07:54:44;99462.78;;;30.95;50.03
7668;BME280;3876;42.204;24.686;2022-08-03T07:57:11;99455.78;;;30.94;49.09
7668;BME280;3876;42.204;24.686;2022-08-03T07:59:37;99462.97;;;31.16;49.59
7668;BME280;3876;42.204;24.686;2022-08-03T08:02:05;99462.44;;;31.44;47.73
7668;BME280;3876;42.204;24.686;2022-08-03T08:04:32;99462.03;;;31.55;48.13
7668;BME280;3876;42.204;24.686;2022-08-03T08:06:59;99459.50;;;31.61;46.46
7668;BME280;3876;42.204;24.686;2022-08-03T08:09:26;99453.31;;;31.69;46.88
7668;BME280;3876;42.204;24.686;2022-08-03T08:11:54;99463.09;;;31.83;45.96
7668;BME280;3876;42.204;24.686;2022-08-03T08:14:21;99465.00;;;31.74;45.25
7668;BME280;3876;42.204;24.686;2022-08-03T08:16:48;99462.38;;;31.74;46.75
7668;BME280;3876;42.204;24.686;2022-08-03T08:19:15;99457.44;;;31.86;46.66
7668;BME280;3876;42.204;24.686;2022-08-03T08:21:42;99468.59;;;31.82;44.96
7668;BME280;3876;42.204;24.686;2022-08-03T08:24:08;99467.50;;;31.76;45.49
7668;BME280;3876;42.204;24.686;2022-08-03T08:26:35;99464.88;;;32.05;45.09
7668;BME280;3876;42.204;24.686;2022-08-03T08:29:04;99469.56;;;32.33;44.61
7668;BME280;3876;42.204;24.686;2022-08-03T08:31:31;99462.44;;;32.18;45.10
7668;BME280;3876;42.204;24.686;2022-08-03T08:33:57;99465.94;;;31.96;45.09
7668;BME280;3876;42.204;24.686;2022-08-03T08:36:30;99462.63;;;31.65;45.41
7668;BME280;3876;42.204;24.686;2022-08-03T08:38:56;99458.09;;;31.88;46.19
7668;BME280;3876;42.204;24.686;2022-08-03T08:41:23;99459.91;;;31.88;45.50
7668;BME280;3876;42.204;24.686;2022-08-03T08:43:50;99459.66;;;31.97;45.45
7668;BME280;3876;42.204;24.686;2022-08-03T08:46:19;99464.03;;;31.90;46.10
7668;BME280;3876;42.204;24.686;2022-08-03T08:48:47;99456.84;;;31.99;45.00
7668;BME280;3876;42.204;24.686;2022-08-03T08:51:15;99460.66;;;31.96;45.86
7668;BME280;3876;42.204;24.686;2022-08-03T08:53:47;99464.53;;;32.23;45.80
7668;BME280;3876;42.204;24.686;2022-08-03T08:56:15;99454.75;;;32.53;46.24
7668;BME280;3876;42.204;24.686;2022-08-03T08:58:46;99455.47;;;32.76;43.04
7668;BME280;3876;42.204;24.686;2022-08-03T09:01:18;99465.34;;;32.82;44.52
7668;BME280;3876;42.204;24.686;2022-08-03T09:03:45;99436.53;;;32.35;44.43
7668;BME280;3876;42.204;24.686;2022-08-03T09:06:12;99466.97;;;32.54;45.06
7668;BME280;3876;42.204;24.686;2022-08-03T09:08:40;99459.78;;;32.62;42.09
7668;BME280;3876;42.204;24.686;2022-08-03T09:11:07;99462.16;;;32.93;41.81
7668;BME280;3876;42.204;24.686;2022-08-03T09:13:34;99449.25;;;33.05;42.07
7668;BME280;3876;42.204;24.686;2022-08-03T09:16:11;99448.56;;;33.17;41.36
7668;BME280;3876;42.204;24.686;2022-08-03T09:18:41;99453.06;;;33.17;43.16
7668;BME280;3876;42.204;24.686;2022-08-03T09:21:16;99451.16;;;33.32;42.83
7668;BME280;3876;42.204;24.686;2022-08-03T09:23:44;99448.44;;;33.47;42.32
7668;BME280;3876;42.204;24.686;2022-08-03T09:26:12;99448.88;;;33.50;40.75
7668;BME280;3876;42.204;24.686;2022-08-03T09:28:45;99447.09;;;33.36;41.83
7668;BME280;3876;42.204;24.686;2022-08-03T09:31:12;99441.31;;;32.90;42.05
7668;BME280;3876;42.204;24.686;2022-08-03T09:33:48;99437.34;;;32.65;42.77
7668;BME280;3876;42.204;24.686;2022-08-03T09:36:32;99442.22;;;32.47;42.08
7668;BME280;3876;42.204;24.686;2022-08-03T09:39:03;99444.97;;;32.24;42.72
7668;BME280;3876;42.204;24.686;2022-08-03T09:41:31;99440.63;;;32.38;42.71
7668;BME280;3876;42.204;24.686;2022-08-03T09:43:57;99434.44;;;32.60;43.22
7668;BME280;3876;42.204;24.686;2022-08-03T09:46:24;99439.81;;;32.66;43.45
7668;BME280;3876;42.204;24.686;2022-08-03T09:49:07;99434.84;;;32.78;42.28
7668;BME280;3876;42.204;24.686;2022-08-03T09:51:34;99433.19;;;32.77;42.68
7668;BME280;3876;42.204;24.686;2022-08-03T09:54:02;99433.56;;;32.74;42.50
7668;BME280;3876;42.204;24.686;2022-08-03T09:56:43;99428.59;;;32.86;41.82
7668;BME280;3876;42.204;24.686;2022-08-03T09:59:11;99427.53;;;33.01;41.88
7668;BME280;3876;42.204;24.686;2022-08-03T10:01:39;99413.50;;;33.07;43.01
7668;BME280;3876;42.204;24.686;2022-08-03T10:04:12;99426.28;;;33.18;41.54
7668;BME280;3876;42.204;24.686;2022-08-03T10:06:42;99430.59;;;33.19;42.80
7668;BME280;3876;42.204;24.686;2022-08-03T10:09:10;99418.44;;;32.89;41.81
7668;BME280;3876;42.204;24.686;2022-08-03T10:11:38;99419.16;;;32.83;42.17
7668;BME280;3876;42.204;24.686;2022-08-03T10:14:07;99405.03;;;32.61;41.08
7668;BME280;3876;42.204;24.686;2022-08-03T10:16:35;99427.19;;;32.39;41.93
7668;BME280;3876;42.204;24.686;2022-08-03T10:19:05;99419.88;;;32.41;41.77
7668;BME280;3876;42.204;24.686;2022-08-03T10:21:36;99408.84;;;32.08;42.19
7668;BME280;3876;42.204;24.686;2022-08-03T10:24:06;99413.28;;;31.93;42.49
7668;BME280;3876;42.204;24.686;2022-08-03T10:26:34;99416.47;;;32.03;42.46
7668;BME280;3876;42.204;24.686;2022-08-03T10:29:03;99409.56;;;32.17;43.09
7668;BME280;3876;42.204;24.686;2022-08-03T10:31:36;99410.09;;;32.12;42.36
7668;BME280;3876;42.204;24.686;2022-08-03T10:34:08;99411.75;;;32.28;42.24
7668;BME280;3876;42.204;24.686;2022-08-03T10:36:39;99413.38;;;31.85;43.60
7668;BME280;3876;42.204;24.686;2022-08-03T10:39:07;99402.94;;;31.69;43.84
7668;BME280;3876;42.204;24.686;2022-08-03T10:41:39;99409.97;;;31.62;45.53
7668;BME280;3876;42.204;24.686;2022-08-03T10:44:09;99399.19;;;31.78;45.69
7668;BME280;3876;42.204;24.686;2022-08-03T10:46:38;99401.97;;;32.14;45.11
7668;BME280;3876;42.204;24.686;2022-08-03T10:49:06;99409.94;;;32.14;44.73
7668;BME280;3876;42.204;24.686;2022-08-03T10:51:34;99398.03;;;32.24;44.62
7668;BME280;3876;42.204;24.686;2022-08-03T10:54:03;99400.28;;;32.42;42.58
7668;BME280;3876;42.204;24.686;2022-08-03T10:56:39;99390.00;;;32.54;42.36
7668;BME280;3876;42.204;24.686;2022-08-03T10:59:56;99392.28;;;32.93;41.44
7668;BME280;3876;42.204;24.686;2022-08-03T11:05:40;99383.38;;;33.00;41.99
7668;BME280;3876;42.204;24.686;2022-08-03T11:08:24;99384.16;;;33.37;41.41
7668;BME280;3876;42.204;24.686;2022-08-03T11:10:56;99377.78;;;33.31;39.92
7668;BME280;3876;42.204;24.686;2022-08-03T11:13:24;99367.22;;;33.16;41.04
7668;BME280;3876;42.204;24.686;2022-08-03T11:15:55;99367.50;;;33.07;40.76
7668;BME280;3876;42.204;24.686;2022-08-03T11:18:23;99362.53;;;33.18;40.61
7668;BME280;3876;42.204;24.686;2022-08-03T11:20:52;99365.50;;;33.09;39.85
7668;BME280;3876;42.204;24.686;2022-08-03T11:23:39;99339.38;;;33.12;39.32
7668;BME280;3876;42.204;24.686;2022-08-03T11:26:15;99357.19;;;33.40;37.51
7668;BME280;3876;42.204;24.686;2022-08-03T11:28:43;99355.00;;;33.50;38.80
7668;BME280;3876;42.204;24.686;2022-08-03T11:31:45;99352.66;;;33.34;38.82
7668;BME280;3876;42.204;24.686;2022-08-03T11:34:14;99350.75;;;33.06;39.44
7668;BME280;3876;42.204;24.686;2022-08-03T11:37:21;99339.38;;;33.12;39.12
7668;BME280;3876;42.204;24.686;2022-08-03T11:39:51;99328.31;;;33.09;40.83
7668;BME280;3876;42.204;24.686;2022-08-03T11:42:39;99343.78;;;33.26;40.07
7668;BME280;3876;42.204;24.686;2022-08-03T11:45:08;99343.56;;;33.21;39.77
7668;BME280;3876;42.204;24.686;2022-08-03T11:47:37;99336.34;;;33.43;39.87
7668;BME280;3876;42.204;24.686;2022-08-03T11:50:05;99339.19;;;33.63;39.05
7668;BME280;3876;42.204;24.686;2022-08-03T11:52:38;99330.31;;;33.56;38.81
7668;BME280;3876;42.204;24.686;2022-08-03T11:55:13;99338.97;;;33.37;39.53
7668;BME280;3876;42.204;24.686;2022-08-03T11:57:42;99336.31;;;33.37;38.64
7668;BME280;3876;42.204;24.686;2022-08-03T12:00:25;99329.34;;;33.36;39.28
7668;BME280;3876;42.204;24.686;2022-08-03T12:03:00;99329.72;;;33.33;39.69
7668;BME280;3876;42.204;24.686;2022-08-03T12:05:42;99311.69;;;33.21;39.13
7668;BME280;3876;42.204;24.686;2022-08-03T12:08:10;99329.03;;;33.03;39.49
7668;BME280;3876;42.204;24.686;2022-08-03T12:10:39;99324.44;;;32.90;40.16
7668;BME280;3876;42.204;24.686;2022-08-03T12:13:07;99332.78;;;32.87;40.45
7668;BME280;3876;42.204;24.686;2022-08-03T12:15:35;99319.28;;;32.82;39.99
7668;BME280;3876;42.204;24.686;2022-08-03T12:18:11;99318.81;;;33.00;40.29
7668;BME280;3876;42.204;24.686;2022-08-03T12:20:38;99321.34;;;33.08;39.46
7668;BME280;3876;42.204;24.686;2022-08-03T12:23:05;99319.63;;;33.00;39.31
7668;BME280;3876;42.204;24.686;2022-08-03T12:25:33;99318.38;;;32.96;39.20
7668;BME280;3876;42.204;24.686;2022-08-03T12:28:10;99315.59;;;33.04;39.17
7668;BME280;3876;42.204;24.686;2022-08-03T12:30:38;99311.81;;;32.92;37.01
7668;BME280;3876;42.204;24.686;2022-08-03T12:33:24;99309.41;;;32.97;38.25
7668;BME280;3876;42.204;24.686;2022-08-03T12:36:03;99318.69;;;32.87;38.60
7668;BME280;3876;42.204;24.686;2022-08-03T12:38:30;99307.34;;;32.99;38.14
7668;BME280;3876;42.204;24.686;2022-08-03T12:40:59;99310.16;;;33.12;37.51
7668;BME280;3876;42.204;24.686;2022-08-03T12:43:28;99303.13;;;32.84;36.74
7668;BME280;3876;42.204;24.686;2022-08-03T12:46:13;99305.22;;;32.88;36.42
7668;BME280;3876;42.204;24.686;2022-08-03T12:49:07;99302.44;;;32.96;36.94
7668;BME280;3876;42.204;24.686;2022-08-03T12:51:37;99303.84;;;33.13;38.07
7668;BME280;3876;42.204;24.686;2022-08-03T12:54:04;99304.31;;;33.23;37.28
7668;BME280;3876;42.204;24.686;2022-08-03T12:56:31;99304.41;;;33.37;36.46
7668;BME280;3876;42.204;24.686;2022-08-03T12:59:00;99307.94;;;33.44;36.33
7668;BME280;3876;42.204;24.686;2022-08-03T13:04:54;99299.50;;;33.34;37.33
7668;BME280;3876;42.204;24.686;2022-08-03T13:07:21;99284.06;;;33.50;38.31
7668;BME280;3876;42.204;24.686;2022-08-03T13:09:49;99280.56;;;33.50;36.79
7668;BME280;3876;42.204;24.686;2022-08-03T13:12:18;99285.63;;;33.45;36.25
7668;BME280;3876;42.204;24.686;2022-08-03T13:14:49;99280.34;;;32.89;36.46
7668;BME280;3876;42.204;24.686;2022-08-03T13:17:16;99287.50;;;32.53;36.96
7668;BME280;3876;42.204;24.686;2022-08-03T13:19:44;99276.03;;;32.67;37.15
7668;BME280;3876;42.204;24.686;2022-08-03T13:22:11;99272.97;;;32.49;36.97
7668;BME280;3876;42.204;24.686;2022-08-03T13:24:39;99278.94;;;32.72;37.96
7668;BME280;3876;42.204;24.686;2022-08-03T13:27:07;99276.63;;;32.90;37.52
7668;BME280;3876;42.204;24.686;2022-08-03T13:29:34;99284.81;;;33.10;38.19